createdAt,value
2023-04-16T00:00:41.286Z,99958.55
2023-04-16T00:05:49.252Z,99961.40
2023-04-16T00:10:57.718Z,99963.39
2023-04-16T00:16:05.211Z,99962.96
2023-04-16T00:21:13.717Z,99961.27
2023-04-16T00:26:22.184Z,99961.34
2023-04-16T00:31:34.385Z,99956.53
2023-04-16T00:36:44.686Z,99956.95
2023-04-16T00:41:53.103Z,99959.82
2023-04-16T00:47:01.766Z,99960.27
2023-04-16T00:52:10.584Z,99961.36
2023-04-16T00:57:21.471Z,99962.80
2023-04-16T01:02:29.972Z,99961.83
2023-04-16T01:07:38.236Z,99957.88
2023-04-16T01:12:46.475Z,99960.05
2023-04-16T01:17:54.814Z,99958.52
2023-04-16T01:23:03.086Z,99957.00
2023-04-16T01:28:11.697Z,99959.52
2023-04-16T01:33:23.363Z,99958.34
2023-04-16T01:38:31.712Z,99963.69
2023-04-16T01:43:40.466Z,99963.77
2023-04-16T01:48:48.535Z,99962.78
2023-04-16T01:53:58.664Z,99956.45
2023-04-16T01:59:07.660Z,99958.58
2023-04-16T02:04:19.803Z,99959.89
2023-04-16T02:09:29.052Z,99963.49
2023-04-16T02:14:37.246Z,99968.83
2023-04-16T02:19:44.811Z,99967.50
2023-04-16T02:24:52.730Z,99966.16
2023-04-16T02:30:00.320Z,99970.08
2023-04-16T02:35:12.421Z,99973.81
2023-04-16T02:40:20.481Z,99977.22
2023-04-16T02:45:29.397Z,99979.95
2023-04-16T02:50:37.130Z,99982.63
2023-04-16T02:55:49.280Z,99985.52
2023-04-16T03:00:57.379Z,99989.79
2023-04-16T03:06:06.266Z,99990.54
2023-04-16T03:11:14.497Z,99995.46
2023-04-16T03:16:23.122Z,99997.09
2023-04-16T03:21:32.175Z,100000.27
2023-04-16T03:26:40.424Z,99994.73
2023-04-16T03:31:49.377Z,99993.88
2023-04-16T03:36:57.858Z,99997.60
2023-04-16T03:42:05.995Z,100001.11
2023-04-16T03:47:18.302Z,100003.63
2023-04-16T03:52:27.490Z,100009.59
2023-04-16T03:57:36.314Z,100009.98
2023-04-16T04:02:49.383Z,100013.70
2023-04-16T04:07:59.526Z,100013.38
2023-04-16T04:13:10.552Z,100014.63
2023-04-16T04:18:19.037Z,100016.23
2023-04-16T04:23:28.145Z,100019.91
2023-04-16T04:28:37.179Z,100022.04
2023-04-16T04:33:46.117Z,100023.99
2023-04-16T04:38:54.521Z,100024.54
2023-04-16T04:44:03.045Z,100026.99
2023-04-16T04:49:12.178Z,100031.03
2023-04-16T04:54:21.122Z,100035.04
2023-04-16T04:59:28.736Z,100035.54
2023-04-16T05:04:39.266Z,100032.91
2023-04-16T05:09:46.641Z,100039.16
2023-04-16T05:14:54.966Z,100040.54
2023-04-16T05:20:03.277Z,100040.48
2023-04-16T05:25:11.536Z,100042.04
2023-04-16T05:30:23.053Z,100043.08
2023-04-16T05:35:31.291Z,100049.86
2023-04-16T05:40:38.662Z,100055.25
2023-04-16T05:45:46.261Z,100054.36
2023-04-16T05:50:55.022Z,100055.55
2023-04-16T05:56:03.918Z,100053.43
2023-04-16T06:01:12.915Z,100054.45
2023-04-16T06:06:21.457Z,100057.54
2023-04-16T06:11:31.347Z,100059.77
2023-04-16T06:16:39.502Z,100059.57
2023-04-16T06:21:47.928Z,100060.73
2023-04-16T06:27:03.729Z,100061.89
2023-04-16T06:32:12.854Z,100061.54
2023-04-16T06:37:21.358Z,100073.27
2023-04-16T06:42:29.855Z,100078.43
2023-04-16T06:47:38.482Z,100076.25
2023-04-16T06:52:46.024Z,100077.77
2023-04-16T06:57:54.558Z,100080.49
2023-04-16T07:03:02.843Z,100083.41
2023-04-16T07:08:12.051Z,100082.65
2023-04-16T07:13:20.381Z,100083.84
2023-04-16T07:18:27.870Z,100085.73
2023-04-16T07:23:36.245Z,100088.32
2023-04-16T07:28:43.615Z,100091.79
2023-04-16T07:33:52.410Z,100096.96
2023-04-16T07:38:59.937Z,100096.55
2023-04-16T07:44:07.881Z,100100.65
2023-04-16T07:49:15.389Z,100100.27
2023-04-16T07:54:24.157Z,100104.58
2023-04-16T07:59:33.054Z,100102.19
2023-04-16T08:04:43.134Z,100104.83
2023-04-16T08:09:55.596Z,100106.59
2023-04-16T08:15:02.203Z,100111.11
2023-04-16T08:20:15.719Z,100114.98
2023-04-16T08:25:25.375Z,100122.41
2023-04-16T08:30:34.317Z,100123.55
2023-04-16T08:35:42.769Z,100125.41
2023-04-16T08:40:51.713Z,100132.17
2023-04-16T08:46:01.207Z,100136.61
2023-04-16T08:51:12.541Z,100141.60
2023-04-16T08:56:25.950Z,100147.42
2023-04-16T09:01:38.552Z,100152.05
2023-04-16T09:06:44.220Z,100156.36
2023-04-16T09:11:55.491Z,100160.19
2023-04-16T09:17:04.339Z,100167.14
2023-04-16T09:22:13.145Z,100171.64
2023-04-16T09:27:22.535Z,100171.35
2023-04-16T09:32:32.713Z,100176.19
2023-04-16T09:37:41.124Z,100170.46
2023-04-16T09:42:51.742Z,100190.63
2023-04-16T09:48:07.479Z,100194.88
2023-04-16T09:53:15.116Z,100197.98
2023-04-16T09:58:25.007Z,100198.29
2023-04-16T10:03:37.501Z,100202.27
2023-04-16T10:08:49.904Z,100203.59
2023-04-16T10:13:58.012Z,100201.73
2023-04-16T10:19:06.863Z,100202.99
2023-04-16T10:24:17.074Z,100206.84
2023-04-16T10:29:26.779Z,100211.02
2023-04-16T10:34:35.430Z,100216.92
2023-04-16T10:39:43.747Z,100218.88
2023-04-16T10:44:52.559Z,100225.39
2023-04-16T10:50:01.847Z,100225.23
2023-04-16T10:55:17.804Z,100229.14
2023-04-16T11:00:28.322Z,100232.55
2023-04-16T11:05:49.133Z,100233.36
2023-04-16T11:11:00.724Z,100239.03
2023-04-16T11:16:09.535Z,100239.67
2023-04-16T11:21:18.737Z,100241.36
2023-04-16T11:26:35.549Z,100246.09
2023-04-16T11:31:44.437Z,100247.41
2023-04-16T11:36:54.302Z,100249.27
2023-04-16T11:42:01.858Z,100249.48
2023-04-16T11:47:14.311Z,100253.39
2023-04-16T11:52:32.431Z,100256.77
2023-04-16T11:57:40.926Z,100258.96
2023-04-16T12:02:52.609Z,100263.02
2023-04-16T12:08:00.797Z,100272.37
2023-04-16T12:13:18.573Z,100267.55
2023-04-16T12:18:27.982Z,100261.56
2023-04-16T12:23:36.543Z,100262.23
2023-04-16T12:28:47.333Z,100259.23
2023-04-16T12:34:07.272Z,100265.69
2023-04-16T12:39:15.669Z,100268.48
2023-04-16T12:44:23.197Z,100266.57
2023-04-16T12:49:31.104Z,100268.13
2023-04-16T12:54:38.353Z,100269.56
2023-04-16T12:59:47.538Z,100274.33
2023-04-16T13:04:56.813Z,100279.15
2023-04-16T13:10:06.599Z,100285.92
2023-04-16T13:15:16.009Z,100290.71
2023-04-16T13:20:24.586Z,100290.36
2023-04-16T13:25:32.910Z,100286.13
2023-04-16T13:30:41.373Z,100287.17
2023-04-16T13:35:50.382Z,100284.72
2023-04-16T13:40:58.647Z,100290.93
2023-04-16T13:46:07.556Z,100293.82
2023-04-16T13:51:16.241Z,100297.21
2023-04-16T13:56:25.403Z,100302.88
2023-04-16T14:01:34.035Z,100303.98
2023-04-16T14:06:42.346Z,100303.49
2023-04-16T14:11:51.780Z,100301.16
2023-04-16T14:17:02.292Z,100298.16
2023-04-16T14:22:11.343Z,100296.17
2023-04-16T14:27:20.417Z,100292.05
2023-04-16T14:32:29.587Z,100289.52
2023-04-16T14:37:39.413Z,100291.39
2023-04-16T14:42:47.665Z,100293.58
2023-04-16T14:47:55.928Z,100295.30
2023-04-16T14:53:04.201Z,100303.14
2023-04-16T14:58:12.953Z,100309.58
2023-04-16T15:03:20.836Z,100312.52
2023-04-16T15:08:28.333Z,100316.53
2023-04-16T15:13:36.517Z,100312.09
2023-04-16T15:18:45.317Z,100315.13
2023-04-16T15:23:54.405Z,100306.08
2023-04-16T15:29:03.287Z,100308.98
2023-04-16T15:34:11.955Z,100307.83
2023-04-16T15:39:21.247Z,100314.02
2023-04-16T15:44:29.745Z,100315.16
2023-04-16T15:49:38.154Z,100318.42
2023-04-16T15:54:46.512Z,100318.52
2023-04-16T16:00:06.531Z,100320.20
2023-04-16T16:05:16.653Z,100323.64
2023-04-16T16:10:24.828Z,100327.08
2023-04-16T16:15:33.763Z,100332.66
2023-04-16T16:20:41.169Z,100335.95
2023-04-16T16:25:49.672Z,100336.25
2023-04-16T16:31:04.589Z,100342.87
2023-04-16T16:36:16.465Z,100346.69
2023-04-16T16:41:24.841Z,100349.46
2023-04-16T16:46:33.279Z,100349.25
2023-04-16T16:51:42.164Z,100356.05
2023-04-16T16:56:50.861Z,100356.89
2023-04-16T17:01:59.643Z,100355.27
2023-04-16T17:07:08.043Z,100353.49
2023-04-16T17:12:16.806Z,100351.71
2023-04-16T17:17:24.674Z,100354.88
2023-04-16T17:22:33.292Z,100362.63
2023-04-16T17:27:41.778Z,100367.95
2023-04-16T17:32:49.926Z,100373.47
2023-04-16T17:37:57.555Z,100378.30
2023-04-16T17:43:06.251Z,100383.65
2023-04-16T17:48:15.030Z,100393.55
2023-04-16T17:53:23.445Z,100400.13
2023-04-16T17:58:33.589Z,100403.01
2023-04-16T18:03:44.820Z,100407.14
2023-04-16T18:08:53.186Z,100411.96
2023-04-16T18:14:01.831Z,100413.95
2023-04-16T18:19:10.525Z,100419.65
2023-04-16T18:24:17.994Z,100419.17
2023-04-16T18:29:26.463Z,100425.73
2023-04-16T18:34:34.852Z,100424.55
2023-04-16T18:39:57.346Z,100426.69
2023-04-16T18:45:06.933Z,100425.64
2023-04-16T18:50:14.886Z,100423.92
2023-04-16T18:55:23.289Z,100428.20
2023-04-16T19:00:31.001Z,100427.20
2023-04-16T19:05:38.346Z,100431.85
2023-04-16T19:10:48.463Z,100430.52
2023-04-16T19:16:01.129Z,100432.72
2023-04-16T19:21:11.170Z,100431.21
2023-04-16T19:26:18.374Z,100432.40
2023-04-16T19:31:26.562Z,100437.48
2023-04-16T19:36:35.425Z,100435.39
2023-04-16T19:41:42.874Z,100437.50
2023-04-16T19:46:51.135Z,100437.55
2023-04-16T19:51:58.393Z,100439.67
2023-04-16T19:57:08.110Z,100435.34
2023-04-16T20:02:16.390Z,100436.15
2023-04-16T20:07:24.552Z,100443.55
2023-04-16T20:12:32.578Z,100442.20
2023-04-16T20:17:40.850Z,100445.60
2023-04-16T20:22:49.633Z,100448.25
2023-04-16T20:27:57.886Z,100454.54
2023-04-16T20:33:06.268Z,100454.65
2023-04-16T20:38:15.207Z,100460.13
2023-04-16T20:43:22.543Z,100460.69
2023-04-16T20:48:30.792Z,100460.53
2023-04-16T20:53:38.735Z,100465.12
2023-04-16T20:58:46.849Z,100470.22
2023-04-16T21:03:54.519Z,100471.30
2023-04-16T21:09:02.852Z,100469.94
2023-04-16T21:14:11.268Z,100474.52
2023-04-16T21:19:18.861Z,100473.85
2023-04-16T21:24:27.387Z,100471.59
2023-04-16T21:29:36.164Z,100473.69
2023-04-16T21:34:44.836Z,100475.06
2023-04-16T21:39:52.939Z,100472.42
2023-04-16T21:45:00.619Z,100469.97
2023-04-16T21:50:10.803Z,100474.73
2023-04-16T21:55:18.396Z,100472.51
2023-04-16T22:00:27.085Z,100472.02
2023-04-16T22:05:34.236Z,100474.34
2023-04-16T22:10:42.453Z,100470.15
2023-04-16T22:15:50.969Z,100469.95
2023-04-16T22:20:58.296Z,100475.23
2023-04-16T22:26:05.898Z,100474.33
2023-04-16T22:31:13.202Z,100465.73
2023-04-16T22:36:21.857Z,100458.87
2023-04-16T22:41:30.389Z,100460.11
2023-04-16T22:46:38.738Z,100459.95
2023-04-16T22:51:46.946Z,100455.30
2023-04-16T22:56:55.040Z,100455.58
2023-04-16T23:02:03.557Z,100466.85
2023-04-16T23:07:12.144Z,100476.55
2023-04-16T23:12:20.526Z,100480.14
2023-04-16T23:17:28.997Z,100474.63
2023-04-16T23:22:37.225Z,100479.25
2023-04-16T23:27:46.111Z,100479.87
2023-04-16T23:32:53.491Z,100481.53
2023-04-16T23:38:00.824Z,100482.68
2023-04-16T23:43:09.345Z,100481.22
2023-04-16T23:48:16.597Z,100482.94
2023-04-16T23:53:23.858Z,100477.50
2023-04-16T23:58:32.247Z,100477.64
